Meteo Giornale » Osservazioni meteo Namibia » Grootfontein
ore: 09:00 - Osservazioni Meteo Grootfontein
Lat. 19° 36' S Lon. 18° 7' E Alt. 1411 metri s.l.m.
23 °C
Sereno
Temp. 24 Ore
12 °C
32 °C
Nord/Nord-Est
13 Km/h
Dew point 5 °C
Umidità 31 %
Visibilità 10 Km
Il sole sorge alle ore 06:55
Il sole tramonta alle ore 18:39
| Data e Ora | Cielo e Fenomeni | T °C | DP °C | Um. % | Pres. hPa | Vis. km | Vento km/h | |
|---|---|---|---|---|---|---|---|---|
| Oggi h: 09:00 | Sereno | 23 | 5 | 31 | 1024 | 10 | N/NE 13 | |
| Oggi h: 08:00 | Sereno | 15 | 2 | 41 | 1024 | 10 | N 5.5 | |
| Oggi h: 07:00 | Sereno | 12 | 1 | 46 | 1023 | 10 | N 5.5 | |
| Oggi h: 06:00 | Sereno | 16 | 1 | 36 | 1023 | 10 | N 5.5 | |
| Oggi h: 05:00 | Sereno | 15 | 0 | 35 | 1023 | 10 | N 5.5 | |
| Oggi h: 04:00 | Sereno | 13 | 0 | 40 | 1022 | 10 | N 5.5 | |
| Oggi h: 03:00 | Sereno | 13 | 0 | 40 | 1022 | 10 | N 5.5 | |
| Oggi h: 02:00 | Sereno | 14 | 0 | 38 | 1022 | 10 | O 7.4 | |
| Oggi h: 01:00 | Sereno | 16 | 0 | 33 | 1023 | 0 | N 5.5 | |
| Oggi h: 00:00 | Sereno | 20 | -1 | 24 | 1023 | 0 | N 5.5 | |
| Ieri h: 23:00 | Sereno | 15 | -1 | 33 | 1022 | 0 | O 7.4 | |
| Ieri h: 22:00 | Sereno | 18 | 0 | 29 | 1022 | 0 | N 5.5 | |
| Ieri h: 21:00 | Sereno | 21 | -1 | 22 | 1021 | 0 | N 5.5 | |
| Ieri h: 20:00 | Sereno | 23 | 0 | 21 | 1021 | 0 | N/NO 7.4 | |
| Ieri h: 19:00 | Sereno | 23 | 0 | 21 | 1020 | 0 | N 3.7 | |
| Ieri h: 18:00 | Sereno | 31 | -1 | 12 | 1020 | 0 | N 1.8 | |
| Ieri h: 17:00 | Sereno | 32 | 0 | 12 | 1019 | 0 | NO 7.4 | |
| Ieri h: 16:00 | Sereno | 32 | -1 | 11 | 1019 | 0 | N 9.3 | |
| Ieri h: 15:00 | Sereno | 32 | 0 | 12 | 1020 | 10 | N 5.5 | |
| Ieri h: 14:00 | Sereno | 32 | 0 | 12 | 1021 | 10 | E/NE 9.3 | |
| Ieri h: 13:00 | Sereno | 31 | 0 | 13 | 1022 | 10 | O 7.4 | |
| Ieri h: 12:00 | Sereno | 31 | 1 | 14 | 1024 | 10 | N 11.1 | |
| Ieri h: 11:00 | Sereno | 28 | 3 | 20 | 1024 | 10 | N/NE 13 | |
| Ieri h: 10:00 | Sereno | 25 | 3 | 23 | 1024 | 10 | NE 14.8 | |



